Time;durP1;ratioP1;P1;durP2;ratioP2;P2;SDS_P1;SDS_P2;PMS_P1;PMS_P2;Temp;Humidity;BMP_temperature;BMP_pressure;BME280_temperature;BME280_humidity;BME280_pressure;Samples;Min_cycle;Max_cycle;Signal;HPM_P1;HPM_P2
2020/12/30 00:00:46;;;;;;;1.77;1.10;;;;;;;11.68;47.82;99051.03;4907223;28;111991;-57
2020/12/30 00:03:12;;;;;;;2.05;1.20;;;;;;;11.67;47.72;99052.13;4889423;28;127891;-57
2020/12/30 00:05:38;;;;;;;2.15;1.30;;;;;;;11.66;48.05;99038.94;4939256;28;127393;-57
2020/12/30 00:08:07;;;;;;;2.25;1.20;;;;;;;11.66;47.55;99041.63;4939918;28;128034;-57
2020/12/30 00:10:33;;;;;;;2.22;1.20;;;;;;;11.68;47.31;99044.81;4941916;28;113643;-58
2020/12/30 00:13:00;;;;;;;1.98;1.00;;;;;;;11.64;47.89;99046.56;4940563;28;128679;-57
2020/12/30 00:15:26;;;;;;;1.60;1.00;;;;;;;11.66;47.74;99044.31;4948879;28;99367;-57
2020/12/30 00:17:52;;;;;;;1.77;1.20;;;;;;;11.66;47.78;99047.03;4960177;28;128095;-57
2020/12/30 00:20:20;;;;;;;1.80;1.08;;;;;;;11.67;47.39;99051.31;4961662;28;113396;-57
2020/12/30 00:22:46;;;;;;;1.40;0.80;;;;;;;11.68;47.69;99047.53;4960070;28;98235;-57
2020/12/30 00:25:13;;;;;;;1.85;0.85;;;;;;;11.68;47.46;99051.03;4923118;28;100328;-57
2020/12/30 00:27:40;;;;;;;1.40;0.75;;;;;;;11.70;47.44;99048.00;4944261;28;98426;-58
2020/12/30 00:30:08;;;;;;;1.50;0.77;;;;;;;11.68;47.44;99047.53;4946569;28;99727;-58
2020/12/30 00:32:35;;;;;;;1.85;0.90;;;;;;;11.71;47.19;99044.19;4945391;28;98227;-58
2020/12/30 00:35:01;;;;;;;1.20;0.70;;;;;;;11.72;47.23;99051.19;4945792;28;98829;-57
2020/12/30 00:37:27;;;;;;;1.52;0.60;;;;;;;11.71;47.71;99049.59;4944066;28;99313;-57
2020/12/30 00:39:53;;;;;;;1.55;0.75;;;;;;;11.74;47.36;99046.28;4945401;28;112642;-57
2020/12/30 00:42:19;;;;;;;1.70;0.80;;;;;;;11.74;47.66;99049.75;4945025;28;99163;-58
2020/12/30 00:44:45;;;;;;;1.20;0.55;;;;;;;11.73;47.09;99050.09;4953290;28;127552;-57
2020/12/30 00:47:11;;;;;;;1.98;0.60;;;;;;;11.74;47.58;99051.69;4945118;28;118814;-57
2020/12/30 00:49:37;;;;;;;1.27;0.50;;;;;;;11.74;47.20;99049.75;4945029;28;112483;-57
2020/12/30 00:52:03;;;;;;;2.00;0.70;;;;;;;11.74;47.70;99057.88;4944182;28;127559;-57
2020/12/30 00:54:29;;;;;;;0.80;0.38;;;;;;;11.76;47.17;99054.88;4945683;28;101283;-57
2020/12/30 00:56:55;;;;;;;1.10;0.45;;;;;;;11.74;47.32;99054.38;4944031;28;127471;-57
2020/12/30 00:59:21;;;;;;;1.55;0.60;;;;;;;11.74;47.68;99063.25;4964452;28;97964;-57
2020/12/30 01:01:52;;;;;;;1.70;0.43;;;;;;;11.73;47.76;99055.50;4962963;28;125914;-57
2020/12/30 01:04:19;;;;;;;1.13;0.55;;;;;;;11.75;47.55;99061.34;4963763;28;98268;-57
2020/12/30 01:06:52;;;;;;;0.80;0.30;;;;;;;11.74;47.03;99057.06;4963875;28;97784;-57
2020/12/30 01:09:19;;;;;;;1.17;0.50;;;;;;;11.75;47.46;99059.47;4964118;28;111007;-57
2020/12/30 01:11:45;;;;;;;1.33;0.47;;;;;;;11.76;47.54;99060.28;4962193;28;114330;-57
2020/12/30 01:14:11;;;;;;;1.35;0.47;;;;;;;11.76;47.09;99062.97;4961772;28;128113;-57
2020/12/30 01:16:37;;;;;;;0.88;0.40;;;;;;;11.77;47.49;99064.56;4945389;28;98083;-57
2020/12/30 01:19:06;;;;;;;1.30;0.50;;;;;;;11.78;47.48;99066.94;4964200;28;97808;-57
2020/12/30 01:21:37;;;;;;;1.02;0.50;;;;;;;11.80;47.44;99063.94;4963125;28;99514;-57
2020/12/30 01:24:04;;;;;;;1.20;0.40;;;;;;;11.79;47.64;99063.16;4962599;28;116898;-57
2020/12/30 01:26:30;;;;;;;1.10;0.40;;;;;;;11.80;47.42;99067.44;4948765;28;114961;-57
2020/12/30 01:28:56;;;;;;;1.38;0.38;;;;;;;11.82;47.80;99063.63;4943643;28;98067;-58
2020/12/30 01:31:30;;;;;;;0.88;0.40;;;;;;;11.83;47.33;99057.97;4942252;28;128886;-57
2020/12/30 01:33:56;;;;;;;1.70;0.40;;;;;;;11.84;47.26;99056.84;4943466;28;98932;-57
2020/12/30 01:36:22;;;;;;;1.20;0.30;;;;;;;11.86;47.34;99054.63;4941707;28;128446;-58
2020/12/30 01:38:48;;;;;;;1.40;0.40;;;;;;;11.86;47.23;99054.63;4942898;28;97938;-58
2020/12/30 01:41:15;;;;;;;1.10;0.47;;;;;;;11.88;47.19;99051.63;4942997;28;113436;-57
2020/12/30 01:43:41;;;;;;;1.20;0.40;;;;;;;11.87;47.54;99053.53;4925631;28;99230;-57
2020/12/30 01:46:07;;;;;;;1.25;0.38;;;;;;;11.87;47.15;99048.16;4942368;28;128466;-58
2020/12/30 01:48:34;;;;;;;1.10;0.40;;;;;;;11.88;47.32;99052.44;4908719;28;117094;-57
2020/12/30 01:51:00;;;;;;;1.10;0.30;;;;;;;11.88;47.32;99048.94;4940085;28;113309;-59
2020/12/30 01:53:26;;;;;;;1.73;0.40;;;;;;;11.88;47.46;99038.94;4906735;28;126489;-57
2020/12/30 01:55:52;;;;;;;1.20;0.40;;;;;;;11.89;46.92;99040.53;4924893;28;97988;-57
2020/12/30 01:58:18;;;;;;;1.60;0.50;;;;;;;11.87;47.46;99040.03;4892910;28;97916;-58
2020/12/30 02:00:48;;;;;;;1.48;0.32;;;;;;;11.86;47.23;99037.63;4941925;28;128623;-57
2020/12/30 02:03:14;;;;;;;1.52;0.50;;;;;;;11.86;47.24;99035.72;4924937;28;98640;-57
2020/12/30 02:05:40;;;;;;;0.80;0.30;;;;;;;11.85;47.14;99042.25;4947599;28;127416;-58
2020/12/30 02:08:06;;;;;;;1.00;0.47;;;;;;;11.87;47.09;99037.34;4936041;28;117008;-57
2020/12/30 02:10:32;;;;;;;1.38;0.40;;;;;;;11.87;47.51;99042.75;4942153;28;128632;-58
2020/12/30 02:12:58;;;;;;;1.15;0.30;;;;;;;11.87;47.46;99040.03;4925046;28;98049;-57
2020/12/30 02:15:31;;;;;;;1.95;0.40;;;;;;;11.84;47.59;99037.97;4943178;28;108774;-57
2020/12/30 02:17:59;;;;;;;0.98;0.40;;;;;;;11.86;47.28;99037.63;4942991;28;104163;-57
2020/12/30 02:20:25;;;;;;;1.88;0.40;;;;;;;11.87;47.53;99033.81;4942465;28;102113;-57
2020/12/30 02:23:09;;;;;;;0.98;0.40;;;;;;;11.84;47.32;99045.25;4960368;28;98327;-57
2020/12/30 02:25:37;;;;;;;1.38;0.40;;;;;;;11.86;47.32;99045.72;4962587;28;98077;-57
2020/12/30 02:28:03;;;;;;;1.33;0.40;;;;;;;11.86;47.38;99043.03;4943835;28;97932;-58
2020/12/30 02:30:29;;;;;;;1.52;0.30;;;;;;;11.83;47.73;99047.16;4944317;28;98775;-57
2020/12/30 02:32:58;;;;;;;1.08;0.40;;;;;;;11.82;48.03;99047.44;4926062;28;127783;-58
2020/12/30 02:35:25;;;;;;;1.00;0.30;;;;;;;11.83;47.82;99051.72;4961230;28;127137;-57
2020/12/30 02:37:51;;;;;;;1.40;0.50;;;;;;;11.79;47.61;99043.47;4945141;28;97839;-57
2020/12/30 02:40:18;;;;;;;1.77;0.50;;;;;;;11.80;47.63;99045.06;4961426;28;128571;-57
2020/12/30 02:42:45;;;;;;;1.42;0.45;;;;;;;11.77;48.10;99042.97;4961942;28;98832;-57
2020/12/30 02:45:11;;;;;;;0.95;0.35;;;;;;;11.74;47.95;99043.56;4960941;28;127326;-57
2020/12/30 02:47:37;;;;;;;1.05;0.38;;;;;;;11.73;47.99;99039.28;4962578;28;98090;-57
2020/12/30 02:50:04;;;;;;;1.20;0.40;;;;;;;11.73;48.19;99050.88;4948776;28;127219;-57
2020/12/30 02:52:30;;;;;;;2.50;0.35;;;;;;;11.71;48.15;99042.31;4941343;28;122066;-57
2020/12/30 02:54:56;;;;;;;0.90;0.30;;;;;;;11.73;47.90;99042.00;4941923;28;128198;-58
2020/12/30 02:57:22;;;;;;;1.17;0.40;;;;;;;11.71;47.93;99042.31;4941718;28;117161;-57
2020/12/30 02:59:55;;;;;;;2.42;0.40;;;;;;;11.77;48.23;99037.56;4941041;28;127939;-57
2020/12/30 03:02:22;;;;;;;1.00;0.35;;;;;;;11.77;48.19;99045.66;4941381;28;98300;-57
2020/12/30 03:04:48;;;;;;;1.10;0.30;;;;;;;11.79;48.17;99052.34;4942047;28;115914;-57
2020/12/30 03:07:14;;;;;;;1.73;0.30;;;;;;;11.80;47.90;99064.75;4940919;28;117735;-58
2020/12/30 03:09:40;;;;;;;1.20;0.30;;;;;;;11.80;47.61;99056.66;4941824;28;98584;-56
2020/12/30 03:12:06;;;;;;;0.98;0.25;;;;;;;11.81;47.99;99065.53;4940993;28;128023;-57
2020/12/30 03:14:32;;;;;;;1.77;0.40;;;;;;;11.84;47.95;99074.97;4941412;28;128044;-57
2020/12/30 03:16:58;;;;;;;1.00;0.30;;;;;;;11.82;48.28;99069.81;4944480;28;118407;-57
2020/12/30 03:19:24;;;;;;;1.08;0.30;;;;;;;11.83;47.73;99071.47;4960980;28;128390;-58
2020/12/30 03:21:52;;;;;;;1.17;0.20;;;;;;;11.85;47.90;99071.16;4951145;28;128311;-57
2020/12/30 03:24:19;;;;;;;1.00;0.28;;;;;;;11.87;48.07;99067.03;4907915;28;98238;-57
2020/12/30 03:26:45;;;;;;;1.30;0.30;;;;;;;11.87;48.24;99074.31;4923755;28;97898;-58
2020/12/30 03:29:11;;;;;;;1.38;0.40;;;;;;;11.85;48.00;99066.53;4922770;28;98667;-57
2020/12/30 03:31:37;;;;;;;1.17;0.30;;;;;;;11.88;48.16;99075.94;4940237;28;127504;-57
2020/12/30 03:34:03;;;;;;;1.38;0.30;;;;;;;11.85;48.22;99071.16;4940423;28;126779;-57
2020/12/30 03:36:29;;;;;;;1.52;0.30;;;;;;;11.86;48.17;99075.44;4943186;28;97762;-57
2020/12/30 03:38:55;;;;;;;0.82;0.30;;;;;;;11.86;47.78;99072.72;4940953;28;127053;-57
2020/12/30 03:41:21;;;;;;;1.05;0.30;;;;;;;11.86;47.99;99080.84;4923045;28;115546;-57
2020/12/30 03:43:47;;;;;;;1.00;0.30;;;;;;;11.84;48.37;99078.47;4940777;28;128098;-57
2020/12/30 03:46:13;;;;;;;0.80;0.30;;;;;;;11.82;47.94;99072.53;4955417;28;98536;-57
2020/12/30 03:48:39;;;;;;;0.90;0.30;;;;;;;11.79;48.40;99067.75;4960325;28;128917;-58
2020/12/30 03:51:05;;;;;;;0.73;0.30;;;;;;;11.77;48.28;99069.97;4960177;28;127604;-57
2020/12/30 03:53:31;;;;;;;0.98;0.25;;;;;;;11.73;48.19;99060.88;4960089;28;124676;-57
2020/12/30 03:55:57;;;;;;;0.95;0.30;;;;;;;11.71;48.51;99063.09;4962413;28;97750;-57
2020/12/30 03:58:23;;;;;;;1.92;0.30;;;;;;;11.70;48.62;99069.59;4960113;28;127369;-57
2020/12/30 04:00:49;;;;;;;1.30;0.30;;;;;;;11.67;48.79;99065.63;4960469;28;125760;-58
2020/12/30 04:03:15;;;;;;;0.90;0.25;;;;;;;11.67;48.31;99068.31;4960626;28;101467;-57
2020/12/30 04:05:41;;;;;;;1.15;0.40;;;;;;;11.65;48.56;99075.91;4959872;28;117285;-58
2020/12/30 04:08:07;;;;;;;0.90;0.30;;;;;;;11.61;48.79;99066.84;4940540;28;125134;-57
2020/12/30 04:10:33;;;;;;;1.20;0.40;;;;;;;11.60;48.33;99069.88;4941507;28;99009;-57
2020/12/30 04:12:59;;;;;;;1.42;0.43;;;;;;;11.60;48.43;99073.34;4944168;28;125475;-57
2020/12/30 04:15:25;;;;;;;1.48;0.60;;;;;;;11.59;48.27;99068.25;4962003;28;97848;-58
2020/12/30 04:17:51;;;;;;;1.45;0.30;;;;;;;11.61;48.30;99072.25;4960253;28;127704;-57
2020/12/30 04:20:17;;;;;;;1.10;0.52;;;;;;;11.61;47.93;99069.53;4941533;28;127674;-57
2020/12/30 04:22:44;;;;;;;1.27;0.57;;;;;;;11.66;48.18;99076.72;4941751;28;112816;-57
2020/12/30 04:25:10;;;;;;;1.30;0.60;;;;;;;11.65;48.19;99084.03;4960987;28;97835;-58
2020/12/30 04:27:36;;;;;;;1.20;0.60;;;;;;;11.66;48.42;99084.81;4959645;28;126957;-57
2020/12/30 04:30:03;;;;;;;0.93;0.45;;;;;;;11.67;48.03;99086.41;4960499;28;98562;-57
2020/12/30 04:32:29;;;;;;;1.92;0.60;;;;;;;11.66;48.24;99082.91;4942269;28;115076;-58
2020/12/30 04:34:55;;;;;;;1.48;0.80;;;;;;;11.66;48.31;99088.31;4960014;28;117856;-57
2020/12/30 04:37:21;;;;;;;2.22;0.65;;;;;;;11.65;48.02;99085.91;4959416;28;128156;-58
2020/12/30 04:39:47;;;;;;;1.50;0.40;;;;;;;11.65;47.98;99097.50;4960066;28;129010;-57
2020/12/30 04:42:13;;;;;;;1.77;0.70;;;;;;;11.63;48.03;99097.03;4944742;28;119511;-57
2020/12/30 04:44:43;;;;;;;1.38;0.60;;;;;;;11.60;48.56;99103.03;4889884;28;103915;-58
2020/12/30 04:47:09;;;;;;;1.65;0.70;;;;;;;11.63;48.26;99104.31;4906005;28;119996;-58
2020/12/30 04:49:35;;;;;;;1.40;0.57;;;;;;;11.61;48.85;99101.94;4905471;28;126922;-57
2020/12/30 04:52:01;;;;;;;1.35;0.55;;;;;;;11.59;48.21;99104.13;4939602;28;127980;-57
2020/12/30 04:54:27;;;;;;;1.33;0.57;;;;;;;11.60;48.20;99103.03;4905570;28;118412;-57
2020/12/30 04:57:00;;;;;;;1.63;0.40;;;;;;;11.56;48.13;99107.47;4922523;28;127729;-57
2020/12/30 04:59:39;;;;;;;1.40;0.40;;;;;;;11.56;48.04;99107.47;4922138;28;98345;-57
2020/12/30 05:02:12;;;;;;;2.75;0.70;;;;;;;11.52;48.69;99104.56;4921925;28;115453;-57
2020/12/30 05:04:39;;;;;;;1.95;0.88;;;;;;;11.54;48.04;99107.75;4941041;28;97899;-58
2020/12/30 05:07:13;;;;;;;2.20;1.30;;;;;;;11.52;48.52;99109.19;4940706;28;98889;-57
2020/12/30 05:09:40;;;;;;;2.50;1.35;;;;;;;11.53;48.02;99113.47;4949570;28;117368;-58
2020/12/30 05:12:11;;;;;;;1.83;1.45;;;;;;;11.50;48.20;99114.84;4959782;28;97851;-58
2020/12/30 05:14:38;;;;;;;2.20;1.58;;;;;;;11.52;48.09;99117.28;4962480;28;97777;-57
2020/12/30 05:17:09;;;;;;;1.77;1.17;;;;;;;11.47;48.16;99115.47;4962034;28;98186;-57
2020/12/30 05:19:38;;;;;;;2.15;1.48;;;;;;;11.46;48.18;99121.19;4962658;28;115543;-58
2020/12/30 05:22:05;;;;;;;2.55;1.38;;;;;;;11.47;48.15;99136.25;4962880;28;115270;-57
2020/12/30 05:24:31;;;;;;;2.33;1.48;;;;;;;11.46;47.86;99137.38;4963324;28;98187;-57
2020/12/30 05:26:58;;;;;;;2.55;1.30;;;;;;;11.42;47.75;99139.06;4963390;28;98077;-57
2020/12/30 05:29:27;;;;;;;1.85;0.95;;;;;;;11.39;48.30;99148.56;4963360;28;120871;-58
2020/12/30 05:31:56;;;;;;;2.05;1.20;;;;;;;11.37;47.81;99150.78;4962582;28;121935;-57
2020/12/30 05:34:23;;;;;;;2.67;1.13;;;;;;;11.37;48.19;99144.59;4963220;28;97791;-58
2020/12/30 05:36:50;;;;;;;1.50;0.77;;;;;;;11.35;47.80;99146.78;4961271;28;98228;-57
2020/12/30 05:39:30;;;;;;;2.20;1.08;;;;;;;11.31;47.77;99146.59;4962839;28;118989;-57
2020/12/30 05:42:18;;;;;;;1.60;0.98;;;;;;;11.27;48.43;99151.00;4963753;28;98228;-57
2020/12/30 05:44:46;;;;;;;1.83;0.80;;;;;;;11.29;48.09;99170.41;4963332;28;109188;-57
2020/12/30 05:47:17;;;;;;;1.95;0.90;;;;;;;11.25;48.41;99169.41;4963115;28;106988;-57
2020/12/30 05:49:44;;;;;;;2.03;1.10;;;;;;;11.23;48.35;99167.00;4961381;28;98636;-57
2020/12/30 05:52:14;;;;;;;2.83;1.55;;;;;;;11.22;48.13;99172.69;4963130;28;99519;-58
2020/12/30 05:54:52;;;;;;;3.42;2.50;;;;;;;11.21;48.15;99173.81;4963850;28;98036;-57
2020/12/30 05:57:31;;;;;;;3.45;2.72;;;;;;;11.19;48.13;99178.69;4941184;28;98432;-57
2020/12/30 06:00:06;;;;;;;4.50;2.88;;;;;;;11.15;48.16;99177.69;4943648;28;98483;-57
2020/12/30 06:02:32;;;;;;;3.65;2.60;;;;;;;11.15;47.67;99183.88;4942658;28;97942;-57
2020/12/30 06:05:09;;;;;;;4.22;2.60;;;;;;;11.10;48.45;99188.59;4948945;28;97849;-58
2020/12/30 06:07:44;;;;;;;3.03;2.05;;;;;;;11.10;47.67;99189.41;4963495;28;98694;-57
2020/12/30 06:10:12;;;;;;;3.42;2.40;;;;;;;11.09;48.29;99185.09;4961584;28;120340;-57
2020/12/30 06:12:55;;;;;;;2.97;2.22;;;;;;;11.06;48.24;99188.41;4962432;28;98054;-57
2020/12/30 06:15:29;;;;;;;3.58;2.58;;;;;;;11.04;48.43;99201.38;4963376;28;97732;-57
2020/12/30 06:18:05;;;;;;;3.53;2.53;;;;;;;11.01;47.44;99196.59;4944427;28;98688;-57
2020/12/30 06:20:39;;;;;;;3.78;2.25;;;;;;;10.99;48.14;99198.78;4961556;28;98452;-57
2020/12/30 06:23:10;;;;;;;4.32;2.72;;;;;;;11.01;47.98;99202.78;4962998;28;98589;-57
2020/12/30 06:25:44;;;;;;;4.38;3.28;;;;;;;10.99;47.98;99207.66;4952115;28;107036;-57
2020/12/30 06:28:12;;;;;;;5.55;3.75;;;;;;;10.98;47.96;99200.69;4907991;28;113960;-57
2020/12/30 06:30:39;;;;;;;5.65;3.60;;;;;;;10.99;47.52;99204.19;4924021;28;112570;-57
2020/12/30 06:33:06;;;;;;;4.63;3.35;;;;;;;10.99;48.28;99206.88;4950153;28;116944;-57
2020/12/30 06:35:33;;;;;;;4.05;2.70;;;;;;;10.96;47.77;99197.47;4966680;28;98228;-57
2020/12/30 06:38:16;;;;;;;3.97;2.85;;;;;;;10.98;47.45;99194.50;4962513;28;99057;-57
2020/12/30 06:41:11;;;;;;;;;;;;;;;10.90;47.87;99209.47;4946945;28;98369;-57
2020/12/30 06:43:44;;;;;;;3.75;2.10;;;;;;;10.91;48.17;99202.97;4957305;28;98154;-57
2020/12/30 06:46:11;;;;;;;2.47;2.03;;;;;;;10.93;48.53;99208.09;4961892;28;97890;-58
2020/12/30 06:49:03;;;;;;;2.90;1.88;;;;;;;10.90;48.40;99211.38;4962239;28;98803;-57
2020/12/30 06:51:36;;;;;;;2.60;1.55;;;;;;;10.91;48.12;99211.06;4960670;28;98913;-57
2020/12/30 06:54:02;;;;;;;2.42;1.67;;;;;;;10.97;47.92;99215.28;4958657;28;98445;-57
2020/12/30 06:56:48;;;;;;;2.38;1.77;;;;;;;10.93;48.53;99230.44;4959840;28;97632;-57
2020/12/30 06:59:26;;;;;;;2.30;1.40;;;;;;;10.94;48.56;99228.56;4958061;28;99711;-57
2020/12/30 07:01:57;;;;;;;2.33;1.13;;;;;;;10.95;48.60;99225.53;4034153;28;10000559;-57
2020/12/30 07:04:24;;;;;;;2.20;1.20;;;;;;;10.98;48.30;99232.25;4862316;28;98302;-57
2020/12/30 07:06:52;;;;;;;2.35;1.02;;;;;;;10.96;48.43;99242.53;4878663;28;118133;-57
2020/12/30 07:09:32;;;;;;;2.17;1.00;;;;;;;10.97;48.18;99236.84;4879935;28;97970;-57
2020/12/30 07:12:05;;;;;;;1.45;0.90;;;;;;;10.95;48.10;99233.63;4864395;28;98120;-57
2020/12/30 07:14:32;;;;;;;1.70;0.93;;;;;;;10.96;48.47;99234.44;4880186;28;98468;-57
2020/12/30 07:17:04;;;;;;;1.98;0.80;;;;;;;10.93;48.04;99226.97;4862748;28;98501;-57
2020/12/30 07:19:31;;;;;;;1.77;0.80;;;;;;;10.96;48.15;99247.91;4879717;28;108774;-57
2020/12/30 07:21:58;;;;;;;1.88;0.85;;;;;;;10.97;47.98;99261.13;4879903;28;97966;-57
2020/12/30 07:24:26;;;;;;;1.95;0.88;;;;;;;11.01;47.88;99251.31;4880023;28;99092;-57
2020/12/30 07:26:58;;;;;;;2.20;1.20;;;;;;;11.03;48.35;99254.50;4880243;28;102548;-57
2020/12/30 07:29:24;;;;;;;2.83;1.02;;;;;;;11.07;47.91;99260.09;4878940;28;98151;-57
2020/12/30 07:31:55;;;;;;;2.20;1.30;;;;;;;11.11;48.06;99266.50;4879370;28;98389;-57
2020/12/30 07:34:26;;;;;;;2.88;1.25;;;;;;;11.14;48.03;99265.91;4880002;28;97819;-57
2020/12/30 07:36:52;;;;;;;2.20;1.27;;;;;;;11.18;47.87;99275.00;4878283;28;104223;-57
2020/12/30 07:39:40;;;;;;;2.08;1.40;;;;;;;11.19;47.81;99276.59;4878662;28;99066;-57
2020/12/30 07:42:16;;;;;;;2.53;1.40;;;;;;;11.21;47.91;99276.31;4881397;28;98264;-57
2020/12/30 07:44:50;;;;;;;3.85;1.40;;;;;;;11.25;47.78;99277.31;4862713;28;98516;-57
2020/12/30 07:47:16;;;;;;;2.53;1.33;;;;;;;11.31;48.02;99276.88;4878434;28;105397;-57
2020/12/30 07:49:42;;;;;;;2.63;1.80;;;;;;;11.41;48.22;99264.31;4879266;28;97943;-57
2020/12/30 07:52:09;;;;;;;3.30;2.08;;;;;;;11.48;47.65;99272.78;4879194;28;116968;-58
2020/12/30 07:54:35;;;;;;;3.85;2.30;;;;;;;11.52;47.65;99274.59;4863316;28;98137;-57
2020/12/30 07:57:03;;;;;;;3.28;2.13;;;;;;;11.59;48.01;99276.06;4860229;28;99004;-57
2020/12/30 07:59:29;;;;;;;3.05;2.10;;;;;;;11.74;47.74;99276.53;4859378;28;98067;-57
2020/12/30 08:02:12;;;;;;;4.18;2.40;;;;;;;11.88;47.55;99276.53;4843628;28;97808;-57
2020/12/30 08:04:39;;;;;;;2.90;2.38;;;;;;;11.94;47.45;99283.41;4861372;28;99064;-57
2020/12/30 08:07:10;;;;;;;3.85;2.70;;;;;;;12.04;47.49;99280.47;4860353;28;98459;-57
2020/12/30 08:09:38;;;;;;;4.10;2.92;;;;;;;12.21;47.23;99287.91;4861150;28;108562;-57
2020/12/30 08:12:05;;;;;;;4.57;3.45;;;;;;;12.44;46.86;99275.22;4861295;28;101249;-57
2020/12/30 08:14:33;;;;;;;5.75;3.92;;;;;;;12.72;46.34;99288.59;4860995;28;98853;-58
2020/12/30 08:17:07;;;;;;;6.07;3.55;;;;;;;12.96;46.01;99291.72;4844324;28;98595;-58
2020/12/30 08:19:48;;;;;;;4.53;3.50;;;;;;;13.28;45.95;99292.53;4861170;28;98908;-57
2020/12/30 08:22:25;;;;;;;5.05;3.97;;;;;;;13.63;45.57;99290.72;4860931;28;97811;-57
2020/12/30 08:24:58;;;;;;;5.85;4.05;;;;;;;13.94;45.16;99298.72;4860472;28;99039;-57
2020/12/30 08:27:26;;;;;;;5.93;4.05;;;;;;;14.28;45.14;99301.78;4841693;28;98612;-58
2020/12/30 08:29:52;;;;;;;6.28;3.75;;;;;;;14.56;44.95;99302.25;4843204;28;98611;-58
2020/12/30 08:32:36;;;;;;;6.13;4.20;;;;;;;14.88;44.72;99298.19;4860314;28;109026;-58
2020/12/30 08:35:12;;;;;;;5.43;4.32;;;;;;;15.12;44.99;99303.06;4860706;28;99399;-58
2020/12/30 08:38:08;;;;;;;4.57;4.07;;;;;;;15.50;44.52;99297.63;4861003;28;99181;-57
2020/12/30 08:40:35;;;;;;;5.55;3.95;;;;;;;15.70;44.73;99306.94;4839167;28;98111;-57
2020/12/30 08:43:32;;;;;;;4.53;3.97;;;;;;;16.00;44.52;99305.00;4827226;28;112368;-58
2020/12/30 08:46:05;;;;;;;5.10;3.92;;;;;;;15.64;45.94;99302.78;4859416;28;99062;-57
2020/12/30 08:48:33;;;;;;;4.50;3.85;;;;;;;15.31;47.24;99310.81;4861012;28;98555;-57
2020/12/30 08:50:59;;;;;;;5.85;4.50;;;;;;;14.95;47.66;99309.34;4863527;28;119910;-57
2020/12/30 08:53:40;;;;;;;5.30;4.60;;;;;;;14.63;48.04;99311.50;4871305;28;105434;-58
2020/12/30 08:56:07;;;;;;;5.68;4.55;;;;;;;14.37;48.91;99316.91;4883490;28;98635;-58
2020/12/30 08:58:33;;;;;;;4.80;4.13;;;;;;;14.28;49.32;99316.13;4875202;28;117574;-57
2020/12/30 09:00:59;;;;;;;7.88;5.72;;;;;;;14.64;48.25;99315.00;4882055;28;108555;-57
2020/12/30 09:03:29;;;;;;;6.90;5.82;;;;;;;14.52;48.71;99320.28;4875445;28;97943;-57
2020/12/30 09:05:59;;;;;;;8.38;7.47;;;;;;;14.53;48.85;99321.88;4883055;28;98556;-58
2020/12/30 09:08:29;;;;;;;9.73;7.70;;;;;;;15.04;48.24;99310.09;4880643;28;115218;-58
2020/12/30 09:10:55;;;;;;;8.75;6.93;;;;;;;15.15;48.75;99324.91;4881981;28;120400;-57
2020/12/30 09:13:23;;;;;;;8.05;6.47;;;;;;;15.31;48.32;99327.09;4882599;28;97877;-58
2020/12/30 09:15:57;;;;;;;8.10;6.18;;;;;;;15.64;48.05;99327.25;4883706;28;99778;-57
2020/12/30 09:18:24;;;;;;;8.35;6.78;;;;;;;15.97;48.19;99318.47;4883324;28;98308;-58
2020/12/30 09:20:51;;;;;;;9.50;7.68;;;;;;;16.24;47.97;99315.22;4882086;28;98299;-58
2020/12/30 09:23:21;;;;;;;10.85;8.80;;;;;;;16.65;47.43;99310.84;4874211;28;118652;-57
2020/12/30 09:25:47;;;;;;;10.55;8.60;;;;;;;16.94;46.78;99318.09;4896093;28;98436;-57
2020/12/30 09:28:14;;;;;;;11.63;9.63;;;;;;;17.18;47.13;99312.69;4878803;28;128638;-58
2020/12/30 09:30:41;;;;;;;11.23;9.55;;;;;;;17.37;46.95;99311.31;4875423;28;98028;-58
2020/12/30 09:33:18;;;;;;;10.80;8.30;;;;;;;17.52;46.95;99312.56;4897187;28;97878;-58
2020/12/30 09:35:45;;;;;;;10.25;7.57;;;;;;;17.68;47.06;99305.28;4882294;28;98470;-58
2020/12/30 09:38:25;;;;;;;8.02;6.80;;;;;;;17.76;47.25;99314.50;4874868;28;97814;-57
2020/12/30 09:40:53;;;;;;;7.18;6.15;;;;;;;17.77;47.34;99307.94;4876025;28;114111;-58
2020/12/30 09:43:23;;;;;;;7.20;6.22;;;;;;;17.69;48.11;99317.81;4874729;28;97910;-58
2020/12/30 09:45:57;;;;;;;7.00;5.70;;;;;;;17.62;48.51;99310.19;4882899;28;98383;-58
2020/12/30 09:48:23;;;;;;;6.50;5.22;;;;;;;17.54;49.05;99304.88;4864966;28;98084;-59
2020/12/30 09:50:51;;;;;;;6.75;4.50;;;;;;;17.45;49.07;99312.34;4882010;28;99494;-58
2020/12/30 09:53:17;;;;;;;6.03;4.35;;;;;;;17.39;49.49;99314.50;4873973;28;98224;-58
2020/12/30 09:55:44;;;;;;;4.88;3.80;;;;;;;17.29;49.52;99314.94;4881360;28;127182;-58
2020/12/30 09:58:10;;;;;;;4.80;3.50;;;;;;;17.20;50.16;99312.34;4874260;28;98106;-58
2020/12/30 10:00:36;;;;;;;4.60;3.00;;;;;;;17.09;50.37;99313.91;4881539;28;98474;-58
2020/12/30 10:03:03;;;;;;;4.32;3.33;;;;;;;16.96;50.75;99320.47;4874941;28;117230;-58
2020/12/30 10:05:29;;;;;;;4.00;2.70;;;;;;;16.84;50.94;99318.50;4881073;28;99470;-57
2020/12/30 10:07:55;;;;;;;3.92;2.53;;;;;;;16.75;51.13;99324.06;4875476;28;128661;-57
2020/12/30 10:10:21;;;;;;;3.58;2.35;;;;;;;16.54;51.74;99321.31;4878886;28;128390;-58
2020/12/30 10:12:47;;;;;;;2.97;2.47;;;;;;;16.36;51.51;99334.28;4878347;28;97727;-57
2020/12/30 10:15:14;;;;;;;3.63;2.20;;;;;;;16.14;51.71;99319.09;4878224;28;117819;-58
2020/12/30 10:17:40;;;;;;;2.53;1.92;;;;;;;15.98;52.21;99323.53;4878379;28;98927;-58
2020/12/30 10:20:09;;;;;;;2.50;1.58;;;;;;;15.83;52.26;99324.91;4877039;28;98664;-58
2020/12/30 10:22:37;;;;;;;2.78;1.50;;;;;;;15.70;52.58;99326.75;4861423;28;98098;-58
2020/12/30 10:25:04;;;;;;;2.35;1.42;;;;;;;15.61;52.30;99330.63;4877987;28;97715;-57
2020/12/30 10:27:30;;;;;;;2.05;1.25;;;;;;;15.51;52.28;99334.50;4879308;28;99210;-57
2020/12/30 10:29:56;;;;;;;2.38;1.33;;;;;;;15.42;52.76;99334.56;4875215;28;126137;-58
2020/12/30 10:32:23;;;;;;;2.83;1.45;;;;;;;15.34;52.28;99331.88;4879948;28;117877;-58
2020/12/30 10:34:49;;;;;;;2.88;1.50;;;;;;;15.27;52.40;99331.59;4872406;28;128255;-58
2020/12/30 10:37:16;;;;;;;3.03;1.88;;;;;;;15.21;52.53;99330.97;4879880;28;129017;-57
2020/12/30 10:39:44;;;;;;;3.47;2.22;;;;;;;15.16;52.70;99325.69;4874207;28;98105;-58
2020/12/30 10:42:10;;;;;;;4.00;2.42;;;;;;;15.13;52.64;99323.63;4878706;28;98506;-57
2020/12/30 10:44:37;;;;;;;3.90;2.70;;;;;;;15.06;52.67;99324.16;4872853;28;127056;-57
2020/12/30 10:47:03;;;;;;;4.35;2.70;;;;;;;15.04;52.77;99318.25;4879958;28;98619;-58
2020/12/30 10:49:29;;;;;;;4.65;2.75;;;;;;;15.01;52.54;99320.81;4872612;28;127072;-57
2020/12/30 10:51:55;;;;;;;5.25;2.95;;;;;;;14.97;52.36;99312.50;4880801;28;117618;-57
2020/12/30 10:54:21;;;;;;;5.22;2.50;;;;;;;14.96;52.46;99316.34;4871752;28;127241;-57
2020/12/30 10:56:47;;;;;;;4.82;2.60;;;;;;;14.94;52.28;99310.47;4880736;28;128747;-57
2020/12/30 10:59:17;;;;;;;4.70;2.28;;;;;;;14.91;52.06;99311.09;4874129;28;98160;-58
2020/12/30 11:01:43;;;;;;;3.97;2.22;;;;;;;14.92;52.59;99308.06;4879407;28;105016;-57
2020/12/30 11:04:10;;;;;;;3.88;2.00;;;;;;;14.90;52.87;99309.53;4872549;28;97736;-57
2020/12/30 11:06:38;;;;;;;3.42;2.05;;;;;;;14.88;52.54;99312.53;4863992;28;98713;-57
2020/12/30 11:09:05;;;;;;;4.10;1.70;;;;;;;14.86;52.78;99308.59;4873426;28;97933;-57
2020/12/30 11:11:32;;;;;;;2.85;1.45;;;;;;;14.84;52.72;99300.75;4879590;28;97851;-57
2020/12/30 11:13:58;;;;;;;2.58;1.40;;;;;;;14.85;52.42;99296.91;4872861;28;111726;-58
2020/12/30 11:16:24;;;;;;;2.75;1.30;;;;;;;14.83;52.42;99298.38;4881430;28;98534;-58
2020/12/30 11:18:50;;;;;;;2.78;1.50;;;;;;;14.82;52.60;99297.56;4872358;28;127318;-57
2020/12/30 11:21:16;;;;;;;2.25;1.40;;;;;;;14.81;52.45;99295.16;4881277;28;97764;-58
2020/12/30 11:23:43;;;;;;;2.65;1.40;;;;;;;14.78;53.08;99304.78;4872296;28;99087;-57
2020/12/30 11:26:09;;;;;;;2.50;1.30;;;;;;;14.77;52.68;99305.06;4879506;28;114692;-57
2020/12/30 11:28:35;;;;;;;1.90;1.23;;;;;;;14.75;52.51;99301.91;4871070;28;128344;-58
2020/12/30 11:31:01;;;;;;;4.13;1.40;;;;;;;14.73;52.96;99302.22;4878214;28;98728;-58
2020/12/30 11:33:27;;;;;;;3.70;1.58;;;;;;;14.71;52.80;99296.31;4871268;28;126615;-57
2020/12/30 11:35:53;;;;;;;2.83;1.48;;;;;;;14.69;52.76;99301.25;4879745;28;127115;-57